createdAt,value
2023-04-13T00:00:58.946Z,6.00
2023-04-13T00:02:00.906Z,5.00
2023-04-13T00:03:04.675Z,4.00
2023-04-13T00:04:10.700Z,6.60
2023-04-13T00:05:14.485Z,6.20
2023-04-13T00:06:16.969Z,6.10
2023-04-13T00:07:18.943Z,5.10
2023-04-13T00:08:24.087Z,5.00
2023-04-13T00:09:26.129Z,3.70
2023-04-13T00:10:31.185Z,6.20
2023-04-13T00:11:35.105Z,6.50
2023-04-13T00:12:37.619Z,6.40
2023-04-13T00:13:39.570Z,5.10
2023-04-13T00:14:44.948Z,6.10
2023-04-13T00:15:46.954Z,6.90
2023-04-13T00:16:51.322Z,6.90
2023-04-13T00:17:57.422Z,5.00
2023-04-13T00:19:03.149Z,6.20
2023-04-13T00:20:16.088Z,7.30
2023-04-13T00:21:19.179Z,6.10
2023-04-13T00:22:29.052Z,5.80
2023-04-13T00:24:43.485Z,7.50
2023-04-13T00:25:46.092Z,5.10
2023-04-13T00:26:48.445Z,6.20
2023-04-13T00:27:50.571Z,6.00
2023-04-13T00:28:52.554Z,6.70
2023-04-13T00:29:57.337Z,5.30
2023-04-13T00:31:00.010Z,5.90
2023-04-13T00:32:02.370Z,7.70
2023-04-13T00:33:07.353Z,6.10
2023-04-13T00:34:10.077Z,4.50
2023-04-13T00:35:19.329Z,6.70
2023-04-13T00:36:22.016Z,4.20
2023-04-13T00:37:24.199Z,5.00
2023-04-13T00:38:28.077Z,6.40
2023-04-13T00:39:30.037Z,5.40
2023-04-13T00:40:32.360Z,5.20
2023-04-13T00:41:37.307Z,5.50
2023-04-13T00:42:39.935Z,5.70
2023-04-13T00:43:42.448Z,6.10
2023-04-13T00:44:47.540Z,5.00
2023-04-13T00:45:50.356Z,6.80
2023-04-13T00:46:54.266Z,5.80
2023-04-13T00:48:00.315Z,6.50
2023-04-13T00:49:02.920Z,6.10
2023-04-13T00:50:08.091Z,5.60
2023-04-13T00:51:10.272Z,7.10
2023-04-13T00:52:12.352Z,7.60
2023-04-13T00:53:16.138Z,6.50
2023-04-13T00:54:19.799Z,6.50
2023-04-13T00:55:23.710Z,7.30
2023-04-13T00:56:27.504Z,6.60
2023-04-13T00:57:31.954Z,7.80
2023-04-13T00:58:40.020Z,6.60
2023-04-13T00:59:43.096Z,5.70
2023-04-13T01:00:46.347Z,6.80
2023-04-13T01:01:48.393Z,2.20
2023-04-13T01:02:54.243Z,7.00
2023-04-13T01:03:57.631Z,6.30
2023-04-13T01:05:07.713Z,7.10
2023-04-13T01:06:25.718Z,6.40
2023-04-13T01:08:53.969Z,7.40
2023-04-13T01:10:23.194Z,7.30
2023-04-13T01:11:29.423Z,5.40
2023-04-13T01:12:59.306Z,6.90
2023-04-13T01:15:45.875Z,6.20
2023-04-13T01:17:00.529Z,5.30
2023-04-13T01:18:04.231Z,5.90
2023-04-13T01:19:10.546Z,6.40
2023-04-13T01:21:19.587Z,5.70
2023-04-13T01:25:12.334Z,4.50
2023-04-13T01:26:14.830Z,5.90
2023-04-13T01:27:16.888Z,5.70
2023-04-13T01:28:19.938Z,5.60
2023-04-13T01:29:23.087Z,6.50
2023-04-13T01:30:25.475Z,5.90
2023-04-13T01:31:29.403Z,6.90
2023-04-13T01:32:32.139Z,6.00
2023-04-13T01:33:34.171Z,6.30
2023-04-13T01:34:38.649Z,6.90
2023-04-13T01:35:43.832Z,7.00
2023-04-13T01:36:47.907Z,6.60
2023-04-13T01:37:53.045Z,6.30
2023-04-13T01:38:56.925Z,7.90
2023-04-13T01:39:59.731Z,5.20
2023-04-13T01:41:04.724Z,4.20
2023-04-13T01:42:08.614Z,6.70
2023-04-13T01:43:13.188Z,7.18
2023-04-13T01:44:27.818Z,7.80
2023-04-13T01:45:51.084Z,5.40
2023-04-13T01:46:53.325Z,7.20
2023-04-13T01:48:28.574Z,6.10
2023-04-13T01:49:35.402Z,4.60
2023-04-13T01:51:56.439Z,8.90
2023-04-13T01:53:06.858Z,6.20
2023-04-13T01:54:14.866Z,6.40
2023-04-13T01:55:19.083Z,4.40
2023-04-13T01:56:23.443Z,7.10
2023-04-13T01:57:27.553Z,6.90
2023-04-13T01:58:30.115Z,7.90
2023-04-13T01:59:34.490Z,6.50
2023-04-13T02:00:36.961Z,6.73
2023-04-13T02:01:41.199Z,7.00
2023-04-13T02:02:43.740Z,4.70
2023-04-13T02:03:45.975Z,7.90
2023-04-13T02:04:47.995Z,5.40
2023-04-13T02:05:50.370Z,7.70
2023-04-13T02:06:53.557Z,6.55
2023-04-13T02:07:57.978Z,6.50
2023-04-13T02:09:00.030Z,6.60
2023-04-13T02:10:03.415Z,7.90
2023-04-13T02:11:06.404Z,6.90
2023-04-13T02:12:10.992Z,8.70
2023-04-13T02:13:13.882Z,8.30
2023-04-13T02:14:16.315Z,7.20
2023-04-13T02:15:19.302Z,8.10
2023-04-13T02:16:21.727Z,8.00
2023-04-13T02:17:24.247Z,8.40
2023-04-13T02:18:26.421Z,7.50
2023-04-13T02:19:29.073Z,7.50
2023-04-13T02:20:34.089Z,7.60
2023-04-13T02:21:36.227Z,8.90
2023-04-13T02:22:38.258Z,8.40
2023-04-13T02:23:40.326Z,7.70
2023-04-13T02:24:42.351Z,7.20
2023-04-13T02:25:46.745Z,9.60
2023-04-13T02:26:48.499Z,7.80
2023-04-13T02:27:50.571Z,4.30
2023-04-13T02:28:52.622Z,8.50
2023-04-13T02:29:54.673Z,6.40
2023-04-13T02:30:57.203Z,8.30
2023-04-13T02:31:59.601Z,7.70
2023-04-13T02:33:02.249Z,7.50
2023-04-13T02:34:05.216Z,7.80
2023-04-13T02:35:09.143Z,7.91
2023-04-13T02:36:12.395Z,6.70
2023-04-13T02:37:19.259Z,7.20
2023-04-13T02:38:22.444Z,6.70
2023-04-13T02:39:26.276Z,6.50
2023-04-13T02:40:30.599Z,8.10
2023-04-13T02:41:33.059Z,7.70
2023-04-13T02:42:36.698Z,7.00
2023-04-13T02:43:38.888Z,6.30
2023-04-13T02:44:41.160Z,6.30
2023-04-13T02:45:43.262Z,7.60
2023-04-13T02:46:47.792Z,6.70
2023-04-13T02:47:52.173Z,6.90
2023-04-13T02:48:55.272Z,7.80
2023-04-13T02:49:57.507Z,7.70
2023-04-13T02:51:04.810Z,6.50
2023-04-13T02:52:09.031Z,8.30
2023-04-13T02:53:14.114Z,6.90
2023-04-13T02:55:33.822Z,9.10
2023-04-13T02:56:38.243Z,7.00
2023-04-13T02:57:40.294Z,6.00
2023-04-13T02:58:42.333Z,7.10
2023-04-13T02:59:46.191Z,8.10
2023-04-13T03:00:49.354Z,7.90
2023-04-13T03:01:54.326Z,8.10
2023-04-13T03:02:57.718Z,6.70
2023-04-13T03:04:01.740Z,7.00
2023-04-13T03:05:05.881Z,7.50
2023-04-13T03:06:09.881Z,7.70
2023-04-13T03:07:16.638Z,6.70
2023-04-13T03:08:20.538Z,7.10
2023-04-13T03:09:27.073Z,7.00
2023-04-13T03:10:30.737Z,9.80
2023-04-13T03:11:33.268Z,6.70
2023-04-13T03:12:40.183Z,7.00
2023-04-13T03:13:44.025Z,7.10
2023-04-13T03:14:46.608Z,8.40
2023-04-13T03:15:49.610Z,8.30
2023-04-13T03:16:52.243Z,7.10
2023-04-13T03:17:56.592Z,7.30
2023-04-13T03:18:59.473Z,7.20
2023-04-13T03:20:01.650Z,7.40
2023-04-13T03:21:05.982Z,7.73
2023-04-13T03:22:10.385Z,6.90
2023-04-13T03:23:14.274Z,8.40
2023-04-13T03:24:17.054Z,7.50
2023-04-13T03:25:19.474Z,7.90
2023-04-13T03:26:22.968Z,7.40
2023-04-13T03:27:25.434Z,8.10
2023-04-13T03:28:28.323Z,8.00
2023-04-13T03:29:31.466Z,7.60
2023-04-13T03:30:33.860Z,8.30
2023-04-13T03:31:36.456Z,9.10
2023-04-13T03:32:39.026Z,9.70
2023-04-13T03:33:41.485Z,8.50
2023-04-13T03:34:43.518Z,8.50
2023-04-13T03:35:46.936Z,7.45
2023-04-13T03:36:52.609Z,7.90
2023-04-13T03:37:55.076Z,8.50
2023-04-13T03:39:04.601Z,8.20
2023-04-13T03:40:11.970Z,7.80
2023-04-13T03:41:15.886Z,8.30
2023-04-13T03:42:19.783Z,8.00
2023-04-13T03:43:24.023Z,7.10
2023-04-13T03:44:27.909Z,7.50
2023-04-13T03:45:30.352Z,7.20
2023-04-13T03:46:34.752Z,8.20
2023-04-13T03:47:39.538Z,7.60
2023-04-13T03:48:42.824Z,8.90
2023-04-13T03:49:46.724Z,8.10
2023-04-13T03:50:49.387Z,7.80
2023-04-13T03:51:52.978Z,7.50
2023-04-13T03:52:55.217Z,8.90
2023-04-13T03:53:57.512Z,8.50
2023-04-13T03:55:00.414Z,5.20
2023-04-13T03:56:06.943Z,8.20
2023-04-13T03:57:09.156Z,6.30
2023-04-13T03:58:11.634Z,5.90
2023-04-13T03:59:14.810Z,8.30
2023-04-13T04:00:18.652Z,8.90
2023-04-13T04:01:23.141Z,10.60
2023-04-13T04:02:26.642Z,8.18
2023-04-13T04:03:29.514Z,7.20
2023-04-13T04:04:33.660Z,8.80
2023-04-13T04:05:38.234Z,8.80
2023-04-13T04:06:41.166Z,8.50
2023-04-13T04:07:45.071Z,9.70
2023-04-13T04:08:47.125Z,9.10
2023-04-13T04:09:51.754Z,5.30
2023-04-13T04:10:54.827Z,8.50
2023-04-13T04:11:57.928Z,8.30
2023-04-13T04:13:01.917Z,11.20
2023-04-13T04:14:04.665Z,9.30
2023-04-13T04:15:07.989Z,8.10
2023-04-13T04:16:11.176Z,10.60
2023-04-13T04:17:15.166Z,9.50
2023-04-13T04:18:18.072Z,5.40
2023-04-13T04:19:20.135Z,9.20
2023-04-13T04:20:23.146Z,7.45
2023-04-13T04:21:25.760Z,10.09
2023-04-13T04:22:28.805Z,12.20
2023-04-13T04:23:32.727Z,9.20
2023-04-13T04:24:36.616Z,9.90
2023-04-13T04:25:38.666Z,6.70
2023-04-13T04:26:41.566Z,11.00
2023-04-13T04:27:44.068Z,9.30
2023-04-13T04:28:46.137Z,9.00
2023-04-13T04:29:50.114Z,12.80
2023-04-13T04:30:54.401Z,8.80
2023-04-13T04:31:56.706Z,10.00
2023-04-13T04:33:00.459Z,11.90
2023-04-13T04:34:04.902Z,13.10
2023-04-13T04:35:10.776Z,8.90
2023-04-13T04:36:15.357Z,10.50
2023-04-13T04:37:20.922Z,10.50
2023-04-13T04:38:24.987Z,8.80
2023-04-13T04:39:27.319Z,10.60
2023-04-13T04:40:32.221Z,11.00
2023-04-13T04:41:34.748Z,10.50
2023-04-13T04:42:37.253Z,9.90
2023-04-13T04:43:40.598Z,8.50
2023-04-13T04:44:42.655Z,8.80
2023-04-13T04:45:45.210Z,9.50
2023-04-13T04:46:48.183Z,12.20
2023-04-13T04:47:50.566Z,13.60
2023-04-13T04:48:55.293Z,12.50
2023-04-13T04:49:58.600Z,11.10
2023-04-13T04:51:01.568Z,13.00
2023-04-13T04:52:05.456Z,12.60
2023-04-13T04:53:08.245Z,9.09
2023-04-13T04:54:10.190Z,10.30
2023-04-13T04:55:12.720Z,10.30
2023-04-13T04:56:17.044Z,10.30
2023-04-13T04:57:20.995Z,8.60
2023-04-13T04:58:23.367Z,10.00
2023-04-13T04:59:27.269Z,7.50
2023-04-13T05:00:34.725Z,6.30
2023-04-13T05:01:41.729Z,10.90
2023-04-13T05:02:45.847Z,10.20
2023-04-13T05:03:48.125Z,10.70
2023-04-13T05:04:55.619Z,7.80
2023-04-13T05:05:58.047Z,12.00
2023-04-13T05:07:01.936Z,10.40
2023-04-13T05:08:04.875Z,11.10
2023-04-13T05:09:07.741Z,8.55
2023-04-13T05:10:12.162Z,10.90
2023-04-13T05:11:16.660Z,10.10
2023-04-13T05:12:19.401Z,10.40
2023-04-13T05:13:21.985Z,9.00
2023-04-13T05:14:25.854Z,7.80
2023-04-13T05:15:28.478Z,7.60
2023-04-13T05:16:31.368Z,8.50
2023-04-13T05:17:35.479Z,7.90
2023-04-13T05:18:45.076Z,11.27
2023-04-13T05:19:48.993Z,8.70
2023-04-13T05:20:54.103Z,6.80
2023-04-13T05:21:56.278Z,8.70
2023-04-13T05:23:00.348Z,9.55
2023-04-13T05:24:02.699Z,8.50
2023-04-13T05:25:07.164Z,10.00
2023-04-13T05:26:10.584Z,9.40
2023-04-13T05:27:14.879Z,8.40
2023-04-13T05:28:17.005Z,9.30
2023-04-13T05:29:19.146Z,6.00
2023-04-13T05:30:23.037Z,9.80
2023-04-13T05:31:25.192Z,7.00
2023-04-13T05:32:27.554Z,10.70
2023-04-13T05:33:30.554Z,9.30
2023-04-13T05:34:32.925Z,10.30
2023-04-13T05:35:39.965Z,10.20
2023-04-13T05:36:42.916Z,7.70
2023-04-13T05:37:46.738Z,8.60
2023-04-13T05:38:50.700Z,9.10
2023-04-13T05:39:53.639Z,9.36
2023-04-13T05:40:57.785Z,7.40
2023-04-13T05:42:00.363Z,9.50
2023-04-13T05:43:03.475Z,8.00
2023-04-13T05:44:07.462Z,7.20
2023-04-13T05:45:10.240Z,9.20
2023-04-13T05:46:14.995Z,5.50
2023-04-13T05:47:20.365Z,10.10
2023-04-13T05:48:23.271Z,11.40
2023-04-13T05:49:27.815Z,10.80
2023-04-13T05:50:30.407Z,8.45
2023-04-13T05:51:33.373Z,10.00
2023-04-13T05:52:35.501Z,9.30
2023-04-13T05:53:38.136Z,9.60
2023-04-13T05:54:40.718Z,8.70
2023-04-13T05:55:42.812Z,9.80
2023-04-13T05:56:45.700Z,8.70
2023-04-13T05:57:48.252Z,8.45
2023-04-13T05:58:52.068Z,8.60
2023-04-13T05:59:56.475Z,6.40
2023-04-13T06:01:04.246Z,12.50
2023-04-13T06:02:06.588Z,10.20
2023-04-13T06:03:09.124Z,9.20
2023-04-13T06:04:12.028Z,10.20
2023-04-13T06:05:15.512Z,8.45
2023-04-13T06:06:17.739Z,9.10
2023-04-13T06:08:31.328Z,9.40
2023-04-13T06:09:33.908Z,9.20
2023-04-13T06:10:36.724Z,7.18
2023-04-13T06:11:39.281Z,9.60
2023-04-13T06:12:41.442Z,8.60
2023-04-13T06:13:44.013Z,9.30
2023-04-13T06:14:47.045Z,8.10
2023-04-13T06:15:49.605Z,9.80
2023-04-13T06:16:52.252Z,9.20
2023-04-13T06:17:54.404Z,6.30
2023-04-13T06:18:56.694Z,8.30
2023-04-13T06:19:59.836Z,7.70
2023-04-13T06:21:01.885Z,8.30
2023-04-13T06:22:03.827Z,7.80
2023-04-13T06:23:07.725Z,8.70
2023-04-13T06:24:10.071Z,11.70
2023-04-13T06:25:13.200Z,14.50
2023-04-13T06:26:16.454Z,14.10
2023-04-13T06:27:23.326Z,13.50
2023-04-13T06:28:25.771Z,12.10
2023-04-13T06:29:27.903Z,13.10
2023-04-13T06:30:33.114Z,8.70
2023-04-13T06:31:37.783Z,10.40
2023-04-13T06:32:41.950Z,10.80
2023-04-13T06:33:44.556Z,10.18
2023-04-13T06:34:47.077Z,9.20
2023-04-13T06:35:49.762Z,10.00
2023-04-13T06:36:51.781Z,10.00
2023-04-13T06:37:54.149Z,9.50
2023-04-13T06:38:58.640Z,9.60
2023-04-13T06:40:02.286Z,9.30
2023-04-13T06:41:05.579Z,10.00
2023-04-13T06:42:09.492Z,9.20
2023-04-13T06:44:25.069Z,10.50
2023-04-13T06:45:29.084Z,10.60
2023-04-13T06:46:31.502Z,9.10
2023-04-13T06:47:35.667Z,8.10
2023-04-13T06:48:38.445Z,9.30
2023-04-13T06:49:40.984Z,8.90
2023-04-13T06:50:44.717Z,9.30
2023-04-13T06:51:47.538Z,7.70
2023-04-13T06:52:49.493Z,8.80
2023-04-13T06:53:51.704Z,9.40
2023-04-13T06:54:54.209Z,7.30
2023-04-13T06:55:58.093Z,6.60
2023-04-13T06:57:00.238Z,6.90
2023-04-13T06:58:02.502Z,9.70
2023-04-13T06:59:05.417Z,7.90
2023-04-13T07:00:21.741Z,9.00
2023-04-13T07:01:13.509Z,8.70
2023-04-13T07:02:15.580Z,10.10
2023-04-13T07:03:18.362Z,8.40
2023-04-13T07:04:25.067Z,9.30
2023-04-13T07:05:27.978Z,7.60
2023-04-13T07:06:33.701Z,7.90
2023-04-13T07:07:36.661Z,8.60
2023-04-13T07:08:38.812Z,8.10
2023-04-13T07:09:41.171Z,8.70
2023-04-13T07:10:43.311Z,6.70
2023-04-13T07:11:47.206Z,8.30
2023-04-13T07:12:49.831Z,8.60
2023-04-13T07:13:52.697Z,9.20
2023-04-13T07:14:55.801Z,9.30
2023-04-13T07:15:58.653Z,8.20
2023-04-13T07:17:06.366Z,8.70
2023-04-13T07:18:13.267Z,8.50
2023-04-13T07:19:18.006Z,7.00
2023-04-13T07:20:20.665Z,7.40
2023-04-13T07:21:28.848Z,8.50
2023-04-13T07:22:33.666Z,8.20
2023-04-13T07:23:35.789Z,8.10
2023-04-13T07:24:37.841Z,7.10
2023-04-13T07:25:41.707Z,8.40
2023-04-13T07:26:46.344Z,8.80
2023-04-13T07:27:49.014Z,7.18
2023-04-13T07:28:52.862Z,9.60
2023-04-13T07:29:55.465Z,7.80
2023-04-13T07:30:59.672Z,9.40
2023-04-13T07:32:03.745Z,8.09
2023-04-13T07:33:06.960Z,7.50
2023-04-13T07:34:09.916Z,8.30
2023-04-13T07:35:13.810Z,7.70
2023-04-13T07:36:17.427Z,8.00
2023-04-13T07:37:20.575Z,9.00
2023-04-13T07:38:23.184Z,9.30
2023-04-13T07:39:25.259Z,6.80
2023-04-13T07:40:28.801Z,10.36
2023-04-13T07:41:35.363Z,9.20
2023-04-13T07:42:39.905Z,7.60
2023-04-13T07:43:42.436Z,8.60
2023-04-13T07:44:44.954Z,8.10
2023-04-13T07:45:47.761Z,7.09
2023-04-13T07:46:50.887Z,7.20
2023-04-13T07:47:53.444Z,7.50
2023-04-13T07:49:13.382Z,7.12
2023-04-13T07:50:17.152Z,7.80
2023-04-13T07:51:19.673Z,6.91
2023-04-13T07:52:22.204Z,7.80
2023-04-13T07:53:26.792Z,5.90
2023-04-13T07:54:28.931Z,12.40
2023-04-13T07:55:31.510Z,34.20
2023-04-13T07:56:33.975Z,54.90
2023-04-13T07:57:36.074Z,81.56
2023-04-13T07:58:38.559Z,217.20
2023-04-13T07:59:40.681Z,120.60
2023-04-13T08:00:43.477Z,71.10
2023-04-13T08:01:45.554Z,60.70
2023-04-13T08:02:48.294Z,54.20
2023-04-13T08:03:52.818Z,53.60
2023-04-13T08:04:58.951Z,45.60
2023-04-13T08:06:09.318Z,36.00
2023-04-13T08:07:11.463Z,33.50
2023-04-13T08:08:13.573Z,33.40
2023-04-13T08:09:16.581Z,27.30
2023-04-13T08:10:19.300Z,25.30
2023-04-13T08:11:21.830Z,20.60
2023-04-13T08:12:25.837Z,12.70
2023-04-13T08:13:29.120Z,19.60
2023-04-13T08:14:31.479Z,14.36
2023-04-13T08:15:35.925Z,14.73
2023-04-13T08:16:40.663Z,15.00
2023-04-13T08:17:45.441Z,13.30
2023-04-13T08:18:50.857Z,12.00
2023-04-13T08:19:55.806Z,9.70
2023-04-13T08:20:58.275Z,10.70
2023-04-13T08:22:01.811Z,10.10
2023-04-13T08:23:04.074Z,8.20
2023-04-13T08:24:08.127Z,8.10
2023-04-13T08:25:10.621Z,8.10
2023-04-13T08:26:22.910Z,9.20
2023-04-13T08:27:26.771Z,9.90
2023-04-13T08:28:32.015Z,10.30
2023-04-13T08:29:33.939Z,9.60
2023-04-13T08:30:37.419Z,11.20
2023-04-13T08:31:40.652Z,9.70
2023-04-13T08:32:45.912Z,7.80
2023-04-13T08:33:49.246Z,9.10
2023-04-13T08:34:51.273Z,9.00
2023-04-13T08:35:53.780Z,12.40
2023-04-13T08:36:57.031Z,9.50
2023-04-13T08:38:01.650Z,9.70
2023-04-13T08:39:04.320Z,11.20
2023-04-13T08:40:09.584Z,9.30
2023-04-13T08:41:11.790Z,10.50
2023-04-13T08:42:14.778Z,8.50
2023-04-13T08:43:19.538Z,8.10
2023-04-13T08:44:21.790Z,8.90
2023-04-13T08:45:25.349Z,12.00
2023-04-13T08:46:34.990Z,12.50
2023-04-13T08:47:37.763Z,9.60
2023-04-13T08:48:52.686Z,9.73
2023-04-13T08:49:44.417Z,11.90
2023-04-13T08:50:54.632Z,11.70
2023-04-13T08:51:56.672Z,10.50
2023-04-13T08:52:59.789Z,10.00
2023-04-13T08:54:01.893Z,9.90
2023-04-13T08:55:08.534Z,11.20
2023-04-13T08:56:14.561Z,7.60
2023-04-13T08:57:18.654Z,8.30
2023-04-13T08:58:20.788Z,13.55
2023-04-13T08:59:22.851Z,8.30
2023-04-13T09:00:27.388Z,7.90
2023-04-13T09:01:30.928Z,9.20
2023-04-13T09:02:33.893Z,8.80
2023-04-13T09:03:45.801Z,9.20
2023-04-13T09:06:04.978Z,8.00
2023-04-13T09:07:17.662Z,13.70
2023-04-13T09:08:20.294Z,11.50
2023-04-13T09:09:26.979Z,14.20
2023-04-13T09:10:30.860Z,8.00
2023-04-13T09:11:35.978Z,12.30
2023-04-13T09:12:40.643Z,9.70
2023-04-13T09:15:04.280Z,11.70
2023-04-13T09:16:09.105Z,10.00
2023-04-13T09:17:31.127Z,11.50
2023-04-13T09:18:35.065Z,10.80
2023-04-13T09:19:39.135Z,9.90
2023-04-13T09:20:44.121Z,8.50
2023-04-13T09:21:48.293Z,7.30
2023-04-13T09:22:52.480Z,11.40
2023-04-13T09:23:58.948Z,9.00
2023-04-13T09:25:07.094Z,9.20
2023-04-13T09:26:09.941Z,11.50
2023-04-13T09:28:30.125Z,14.00
2023-04-13T09:29:36.130Z,11.80
2023-04-13T09:30:39.364Z,11.90
2023-04-13T09:31:43.647Z,12.60
2023-04-13T09:32:48.177Z,13.60
2023-04-13T09:33:51.884Z,12.20
2023-04-13T09:35:06.173Z,13.70
2023-04-13T09:36:13.927Z,12.90
2023-04-13T09:37:16.010Z,12.30
2023-04-13T09:38:19.903Z,12.40
2023-04-13T09:39:27.121Z,12.40
2023-04-13T09:41:47.408Z,10.10
2023-04-13T09:42:56.323Z,11.80
2023-04-13T09:44:02.540Z,12.50
2023-04-13T09:45:06.681Z,12.50
2023-04-13T09:46:13.483Z,13.40
2023-04-13T09:47:15.771Z,10.90
2023-04-13T09:48:21.671Z,12.60
2023-04-13T09:49:24.279Z,11.40
2023-04-13T09:50:36.167Z,10.09
2023-04-13T09:51:39.602Z,8.10
2023-04-13T09:52:41.641Z,11.00
2023-04-13T09:53:46.909Z,9.40
2023-04-13T09:54:54.207Z,9.30
2023-04-13T09:55:59.555Z,10.30
2023-04-13T09:58:18.768Z,10.30
2023-04-13T09:59:31.756Z,12.40
2023-04-13T10:01:50.751Z,9.60
2023-04-13T10:02:53.093Z,9.40
2023-04-13T10:03:55.348Z,8.70
2023-04-13T10:04:58.197Z,4.70
2023-04-13T10:06:00.778Z,8.00
2023-04-13T10:07:05.628Z,11.70
2023-04-13T10:08:08.196Z,7.10
2023-04-13T10:09:10.575Z,9.70
2023-04-13T10:10:13.656Z,9.91
2023-04-13T10:11:15.826Z,9.70
2023-04-13T10:12:18.804Z,9.10
2023-04-13T10:13:25.124Z,9.00
2023-04-13T10:14:31.641Z,8.80
2023-04-13T10:16:02.145Z,7.30
2023-04-13T10:17:08.411Z,9.40
2023-04-13T10:18:36.923Z,9.10
2023-04-13T10:19:42.321Z,8.10
2023-04-13T10:20:44.592Z,8.30
2023-04-13T10:21:48.431Z,7.50
2023-04-13T10:22:51.709Z,0.40
2023-04-13T10:23:54.110Z,10.80
2023-04-13T10:24:58.574Z,8.20
2023-04-13T10:26:00.679Z,8.50
2023-04-13T10:27:20.531Z,8.50
2023-04-13T10:28:24.064Z,8.60
2023-04-13T10:29:30.892Z,9.30
2023-04-13T10:30:38.076Z,7.90
2023-04-13T10:31:47.031Z,8.70
2023-04-13T10:33:06.160Z,9.60
2023-04-13T10:34:09.838Z,10.20
2023-04-13T10:35:14.073Z,9.30
2023-04-13T10:36:18.796Z,10.00
2023-04-13T10:37:30.173Z,9.10
2023-04-13T10:38:47.168Z,8.60
2023-04-13T10:39:51.448Z,21.90
2023-04-13T10:40:55.254Z,31.00
2023-04-13T10:42:10.197Z,19.80
2023-04-13T10:43:29.741Z,14.30
2023-04-13T10:44:55.927Z,15.60
2023-04-13T10:46:10.933Z,11.90
2023-04-13T10:47:14.197Z,13.10
2023-04-13T10:48:28.661Z,13.10
2023-04-13T10:49:33.110Z,11.00
2023-04-13T10:50:38.103Z,9.90
2023-04-13T10:51:42.452Z,10.70
2023-04-13T10:53:03.201Z,12.00
2023-04-13T10:54:07.751Z,9.90
2023-04-13T10:55:09.804Z,8.90
2023-04-13T10:56:18.071Z,10.00
2023-04-13T10:57:23.026Z,10.50
2023-04-13T10:58:27.163Z,10.90
2023-04-13T11:00:56.025Z,11.00
2023-04-13T11:01:59.119Z,10.50
2023-04-13T11:03:01.395Z,9.80
2023-04-13T11:04:06.803Z,11.10
2023-04-13T11:05:09.031Z,11.20
2023-04-13T11:06:11.652Z,10.30
2023-04-13T11:07:16.192Z,7.50
2023-04-13T11:08:20.468Z,8.40
2023-04-13T11:09:22.617Z,9.70
2023-04-13T11:10:25.863Z,9.60
2023-04-13T11:11:28.509Z,10.20
2023-04-13T11:12:30.469Z,9.90
2023-04-13T11:13:32.518Z,11.00
2023-04-13T11:14:34.606Z,8.90
2023-04-13T11:15:36.560Z,11.10
2023-04-13T11:16:45.062Z,10.70
2023-04-13T11:17:54.795Z,9.70
2023-04-13T11:19:03.526Z,10.20
2023-04-13T11:20:07.800Z,12.00
2023-04-13T11:21:14.827Z,10.10
2023-04-13T11:22:18.050Z,9.90
2023-04-13T11:23:23.061Z,10.70
2023-04-13T11:25:36.798Z,11.70
2023-04-13T11:26:39.892Z,11.20
2023-04-13T11:27:42.355Z,11.10
2023-04-13T11:28:46.966Z,10.40
2023-04-13T11:29:59.630Z,9.40
2023-04-13T11:31:01.689Z,11.20
2023-04-13T11:33:13.099Z,10.80
2023-04-13T11:34:24.024Z,8.30
2023-04-13T11:35:26.120Z,9.90
2023-04-13T11:36:28.353Z,10.90
2023-04-13T11:38:43.658Z,10.80
2023-04-13T11:39:45.617Z,9.50
2023-04-13T11:40:49.486Z,9.91
2023-04-13T11:41:51.473Z,11.50
2023-04-13T11:42:55.225Z,10.00
2023-04-13T11:43:58.275Z,9.80
2023-04-13T11:45:00.313Z,10.60
2023-04-13T11:46:02.523Z,12.60
2023-04-13T11:47:05.435Z,10.80
2023-04-13T11:48:07.393Z,11.70
2023-04-13T11:49:09.354Z,10.60
2023-04-13T11:50:14.825Z,14.20
2023-04-13T11:51:16.808Z,11.70
2023-04-13T11:52:19.343Z,12.80
2023-04-13T11:53:21.285Z,12.30
2023-04-13T11:54:23.236Z,12.10
2023-04-13T11:55:25.415Z,11.00
2023-04-13T11:56:27.734Z,10.60
2023-04-13T11:57:33.584Z,12.70
2023-04-13T11:58:37.446Z,10.10
2023-04-13T11:59:39.434Z,7.50
2023-04-13T12:00:41.699Z,12.90
2023-04-13T12:01:49.963Z,7.90
2023-04-13T12:06:37.825Z,14.10
2023-04-13T12:07:40.828Z,13.82
2023-04-13T12:08:43.780Z,13.00
2023-04-13T12:12:29.966Z,15.70
2023-04-13T12:13:20.311Z,12.10
2023-04-13T12:15:43.467Z,12.90
2023-04-13T12:17:03.090Z,14.00
2023-04-13T12:19:49.050Z,15.20
2023-04-13T12:20:52.231Z,11.60
2023-04-13T12:24:00.518Z,18.40
2023-04-13T12:25:17.749Z,16.30
2023-04-13T12:27:22.348Z,19.78
2023-04-13T12:34:06.741Z,17.60
2023-04-13T12:35:09.229Z,15.20
2023-04-13T12:36:11.957Z,14.82
2023-04-13T12:37:13.926Z,15.80
2023-04-13T12:38:16.248Z,16.60
2023-04-13T12:39:19.304Z,19.33
2023-04-13T12:40:21.949Z,14.80
2023-04-13T12:41:23.928Z,16.60
2023-04-13T12:42:25.828Z,16.78
2023-04-13T12:43:28.012Z,15.10
2023-04-13T12:44:33.131Z,14.80
2023-04-13T12:45:34.680Z,14.40
2023-04-13T12:46:37.066Z,14.10
2023-04-13T12:47:40.356Z,13.30
2023-04-13T12:48:42.411Z,12.70
2023-04-13T12:49:45.568Z,16.40
2023-04-13T12:50:48.277Z,17.30
2023-04-13T12:51:50.327Z,19.10
2023-04-13T12:52:52.285Z,13.70
2023-04-13T12:53:55.316Z,15.10
2023-04-13T12:55:00.826Z,19.30
2023-04-13T12:56:04.485Z,16.10
2023-04-13T12:57:07.640Z,14.50
2023-04-13T12:58:10.573Z,16.50
2023-04-13T12:59:13.161Z,17.60
2023-04-13T13:00:17.594Z,17.50
2023-04-13T13:01:22.452Z,16.70
2023-04-13T13:02:26.848Z,14.60
2023-04-13T13:03:29.398Z,7.40
2023-04-13T13:04:31.774Z,16.27
2023-04-13T13:05:34.949Z,14.00
2023-04-13T13:06:38.295Z,15.60
2023-04-13T13:07:40.302Z,17.20
2023-04-13T13:08:42.544Z,13.60
2023-04-13T13:09:45.603Z,15.00
2023-04-13T13:10:49.114Z,14.50
2023-04-13T13:11:51.199Z,17.50
2023-04-13T13:12:53.174Z,11.80
2023-04-13T13:13:57.263Z,15.80
2023-04-13T13:15:00.283Z,14.60
2023-04-13T13:16:05.490Z,16.40
2023-04-13T13:17:07.633Z,17.40
2023-04-13T13:18:10.662Z,15.70
2023-04-13T13:19:13.173Z,16.90
2023-04-13T13:20:16.404Z,17.80
2023-04-13T13:21:18.409Z,15.00
2023-04-13T13:22:21.220Z,13.90
2023-04-13T13:23:24.182Z,15.20
2023-04-13T13:24:28.321Z,15.20
2023-04-13T13:25:32.187Z,15.10
2023-04-13T13:27:00.271Z,16.00
2023-04-13T13:28:10.350Z,15.20
2023-04-13T13:28:48.562Z,13.20
2023-04-13T13:29:50.623Z,14.70
2023-04-13T13:30:53.993Z,14.80
2023-04-13T13:31:56.628Z,14.90
2023-04-13T13:32:58.799Z,14.10
2023-04-13T13:34:00.980Z,15.40
2023-04-13T13:35:04.108Z,16.50
2023-04-13T13:36:07.401Z,9.10
2023-04-13T13:37:10.461Z,17.18
2023-04-13T13:38:12.479Z,17.60
2023-04-13T13:39:14.554Z,13.30
2023-04-13T13:40:18.633Z,17.40
2023-04-13T13:41:20.601Z,13.60
2023-04-13T13:42:22.576Z,16.30
2023-04-13T13:43:25.326Z,16.40
2023-04-13T13:44:27.337Z,14.80
2023-04-13T13:45:31.667Z,15.00
2023-04-13T13:46:35.724Z,15.10
2023-04-13T13:47:39.386Z,16.20
2023-04-13T13:48:42.794Z,18.00
2023-04-13T13:51:11.797Z,17.50
2023-04-13T13:52:14.523Z,14.50
2023-04-13T13:53:21.798Z,15.90
2023-04-13T13:54:24.402Z,14.80
2023-04-13T13:55:26.364Z,10.40
2023-04-13T13:56:28.881Z,14.30
2023-04-13T13:57:31.594Z,14.60
2023-04-13T13:58:34.573Z,15.70
2023-04-13T13:59:36.621Z,13.09
2023-04-13T14:00:39.123Z,12.90
2023-04-13T14:01:41.592Z,14.30
2023-04-13T14:02:44.959Z,15.10
2023-04-13T14:03:48.872Z,17.40
2023-04-13T14:04:50.996Z,20.00
2023-04-13T14:05:54.082Z,20.80
2023-04-13T14:06:56.183Z,21.00
2023-04-13T14:07:58.377Z,18.70
2023-04-13T14:09:00.461Z,20.40
2023-04-13T14:10:03.933Z,18.20
2023-04-13T14:11:06.017Z,19.70
2023-04-13T14:12:07.980Z,20.00
2023-04-13T14:13:10.026Z,19.40
2023-04-13T14:14:21.360Z,20.60
2023-04-13T14:15:17.115Z,20.00
2023-04-13T14:16:22.406Z,20.40
2023-04-13T14:17:24.504Z,18.60
2023-04-13T14:18:26.563Z,13.30
2023-04-13T14:19:29.008Z,19.10
2023-04-13T14:20:31.096Z,18.20
2023-04-13T14:21:33.394Z,17.60
2023-04-13T14:22:36.513Z,17.30
2023-04-13T14:23:38.514Z,17.00
2023-04-13T14:24:40.481Z,18.20
2023-04-13T14:25:42.929Z,18.40
2023-04-13T14:26:45.895Z,14.27
2023-04-13T14:27:47.946Z,15.10
2023-04-13T14:28:49.955Z,17.20
2023-04-13T14:29:52.492Z,14.70
2023-04-13T14:30:54.688Z,16.50
2023-04-13T14:31:57.047Z,17.60
2023-04-13T14:32:59.758Z,16.20
2023-04-13T14:34:02.335Z,13.73
2023-04-13T14:35:04.771Z,14.20
2023-04-13T14:36:08.503Z,19.09
2023-04-13T14:37:11.687Z,14.50
2023-04-13T14:38:13.660Z,19.50
2023-04-13T14:39:15.679Z,16.67
2023-04-13T14:40:19.641Z,16.50
2023-04-13T14:41:21.652Z,17.70
2023-04-13T14:42:25.772Z,17.10
2023-04-13T14:43:28.129Z,16.90
2023-04-13T14:44:30.206Z,13.10
2023-04-13T14:45:32.757Z,15.70
2023-04-13T14:46:35.214Z,19.73
2023-04-13T14:47:38.258Z,17.80